createdAt,value
2022-12-04T00:00:16.941Z,42.53
2022-12-04T00:06:20.694Z,34.72
2022-12-04T00:12:23.247Z,41.85
2022-12-04T00:18:25.887Z,32.85
2022-12-04T00:24:28.284Z,29.77
2022-12-04T00:30:30.672Z,28.80
2022-12-04T00:42:35.087Z,24.30
2022-12-04T00:48:37.535Z,25.90
2022-12-04T01:00:42.845Z,22.60
2022-12-04T01:06:46.638Z,18.63
2022-12-04T01:12:53.338Z,16.83
2022-12-04T01:18:56.435Z,21.25
2022-12-04T01:24:58.873Z,17.35
2022-12-04T01:31:06.290Z,17.05
2022-12-04T01:37:09.482Z,16.70
2022-12-04T01:43:13.132Z,13.93
2022-12-04T01:49:23.936Z,12.02
2022-12-04T01:55:26.521Z,16.35
2022-12-04T02:07:32.548Z,17.77
2022-12-04T02:13:49.912Z,15.52
2022-12-04T02:20:07.568Z,8.52
2022-12-04T02:26:33.970Z,11.48
2022-12-04T02:32:42.147Z,12.75
2022-12-04T02:38:52.411Z,13.05
2022-12-04T02:45:00.517Z,9.77
2022-12-04T02:51:06.255Z,10.57
2022-12-04T02:57:13.977Z,8.25
2022-12-04T03:03:21.918Z,11.05
2022-12-04T03:09:34.593Z,14.07
2022-12-04T03:16:02.394Z,10.52
2022-12-04T03:22:10.147Z,14.95
2022-12-04T03:28:22.598Z,10.30
2022-12-04T03:35:03.473Z,14.40
2022-12-04T03:41:24.281Z,11.10
2022-12-04T03:47:40.574Z,11.77
2022-12-04T03:53:51.821Z,11.73
2022-12-04T04:00:02.853Z,13.18
2022-12-04T04:06:16.264Z,11.60
2022-12-04T04:12:22.691Z,12.35
2022-12-04T04:18:44.317Z,9.57
2022-12-04T04:24:52.531Z,12.25
2022-12-04T04:30:59.108Z,12.85
2022-12-04T04:37:04.355Z,15.73
2022-12-04T04:43:28.316Z,13.80
2022-12-04T04:49:34.316Z,15.32
2022-12-04T04:55:37.187Z,14.30
2022-12-04T05:01:41.820Z,16.90
2022-12-04T05:07:44.262Z,11.82
2022-12-04T05:13:46.858Z,12.75
2022-12-04T05:26:05.615Z,20.98
2022-12-04T05:32:07.914Z,16.10
2022-12-04T05:38:10.730Z,17.88
2022-12-04T05:44:13.336Z,18.38
2022-12-04T05:50:15.776Z,20.17
2022-12-04T05:56:17.856Z,16.48
2022-12-04T06:02:20.190Z,16.23
2022-12-04T06:08:22.514Z,21.65
2022-12-04T06:14:24.855Z,19.30
2022-12-04T06:20:27.035Z,23.27
2022-12-04T06:26:29.712Z,13.68
2022-12-04T06:32:31.984Z,15.95
2022-12-04T06:38:35.133Z,23.58
2022-12-04T06:44:40.603Z,20.65
2022-12-04T06:50:45.120Z,17.95
2022-12-04T06:56:49.309Z,18.35
2022-12-04T07:02:51.654Z,23.80
2022-12-04T07:09:02.445Z,22.75
2022-12-04T07:15:04.936Z,17.00
2022-12-04T07:21:09.306Z,18.00
2022-12-04T07:27:11.588Z,12.93
2022-12-04T07:33:14.034Z,16.73
2022-12-04T07:39:16.472Z,16.60
2022-12-04T07:51:24.081Z,20.08
2022-12-04T07:57:27.998Z,19.75
2022-12-04T08:03:30.437Z,22.95
2022-12-04T08:09:33.178Z,17.30
2022-12-04T08:15:35.930Z,19.58
2022-12-04T08:21:38.417Z,17.20
2022-12-04T08:27:47.159Z,15.40
2022-12-04T08:33:51.693Z,17.27
2022-12-04T08:39:54.584Z,15.82
2022-12-04T08:46:04.386Z,18.40
2022-12-04T08:52:07.230Z,15.23
2022-12-04T08:58:09.763Z,15.30
2022-12-04T09:04:29.196Z,12.85
2022-12-04T09:10:31.428Z,14.50
2022-12-04T09:16:33.909Z,14.77
2022-12-04T09:29:01.615Z,16.38
2022-12-04T09:35:05.004Z,12.68
2022-12-04T09:41:45.093Z,18.15
2022-12-04T09:47:50.655Z,12.98
2022-12-04T09:54:02.576Z,19.27
2022-12-04T10:00:07.237Z,15.73
2022-12-04T10:06:33.842Z,16.88
2022-12-04T10:12:56.315Z,14.93
2022-12-04T10:18:59.008Z,13.60
2022-12-04T10:25:08.995Z,17.42
2022-12-04T10:31:14.520Z,13.27
2022-12-04T10:37:17.346Z,15.77
2022-12-04T10:43:41.863Z,15.88
2022-12-04T10:49:44.315Z,13.73
2022-12-04T10:55:46.652Z,14.15
2022-12-04T11:01:49.672Z,17.27
2022-12-04T11:07:52.795Z,11.90
2022-12-04T11:14:22.732Z,15.27
2022-12-04T11:20:27.502Z,20.17
2022-12-04T11:26:35.648Z,18.35
2022-12-04T11:32:38.992Z,19.85
2022-12-04T11:38:41.227Z,15.70
2022-12-04T11:44:56.686Z,18.63
2022-12-04T11:51:35.182Z,17.92
2022-12-04T11:58:00.502Z,21.92
2022-12-04T12:04:21.601Z,19.13
2022-12-04T12:10:51.411Z,17.35
2022-12-04T12:16:59.773Z,17.42
2022-12-04T12:23:26.972Z,15.40
2022-12-04T12:29:56.896Z,24.50
2022-12-04T12:36:08.605Z,18.48
2022-12-04T12:42:21.716Z,24.33
2022-12-04T12:48:44.264Z,18.00
2022-12-04T12:54:53.855Z,14.77
2022-12-04T13:01:06.231Z,15.75
2022-12-04T13:07:17.714Z,23.48
2022-12-04T13:13:29.085Z,20.75
2022-12-04T13:19:44.813Z,19.35
2022-12-04T13:26:04.170Z,18.85
2022-12-04T13:32:09.620Z,20.13
2022-12-04T13:38:52.558Z,21.02
2022-12-04T13:45:00.328Z,21.83
2022-12-04T13:51:22.287Z,24.20
2022-12-04T13:57:27.930Z,20.88
2022-12-04T14:03:37.607Z,20.65
2022-12-04T14:09:42.878Z,19.75
2022-12-04T14:15:45.734Z,27.10
2022-12-04T14:21:47.914Z,34.10
2022-12-04T14:27:52.665Z,53.20
2022-12-04T14:34:01.861Z,37.65
2022-12-04T14:40:07.905Z,30.92
2022-12-04T14:46:32.832Z,36.95
2022-12-04T14:52:45.775Z,30.40
2022-12-04T15:04:51.195Z,29.75
2022-12-04T15:11:12.444Z,30.92
2022-12-04T15:17:16.481Z,48.65
2022-12-04T15:23:50.462Z,72.05
2022-12-04T15:29:56.842Z,72.95
2022-12-04T15:36:08.624Z,64.65
2022-12-04T15:42:18.898Z,19.40
2022-12-04T15:48:31.344Z,40.13
2022-12-04T15:54:34.096Z,36.50
2022-12-04T16:00:39.778Z,40.83
2022-12-04T16:06:48.012Z,36.42
2022-12-04T16:12:54.694Z,25.95
2022-12-04T16:18:56.959Z,23.88
2022-12-04T16:24:59.577Z,22.20
2022-12-04T16:31:02.425Z,49.33
2022-12-04T16:43:15.196Z,22.70
2022-12-04T16:49:17.505Z,31.20
2022-12-04T16:55:35.284Z,24.33
2022-12-04T17:01:42.923Z,27.10
2022-12-04T17:07:45.581Z,25.83
2022-12-04T17:19:50.028Z,28.17
2022-12-04T17:25:52.296Z,23.80
2022-12-04T17:31:55.493Z,21.98
2022-12-04T17:38:03.901Z,21.48
2022-12-04T17:44:08.201Z,21.27
2022-12-04T17:50:10.740Z,16.50
2022-12-04T17:56:18.946Z,23.23
2022-12-04T18:02:21.585Z,17.27
2022-12-04T18:14:26.735Z,20.93
2022-12-04T18:20:29.145Z,20.27
2022-12-04T18:26:39.968Z,20.35
2022-12-04T18:32:42.120Z,20.05
2022-12-04T18:38:46.653Z,21.90
2022-12-04T18:44:49.070Z,19.23
2022-12-04T18:50:51.401Z,26.10
2022-12-04T18:56:53.695Z,22.08
2022-12-04T19:02:56.681Z,16.52
2022-12-04T19:09:01.149Z,19.67
2022-12-04T19:15:03.533Z,20.90
2022-12-04T19:21:07.438Z,20.15
2022-12-04T19:27:12.781Z,15.27
2022-12-04T19:33:15.046Z,16.05
2022-12-04T19:39:17.195Z,10.77
2022-12-04T19:45:19.792Z,10.68
2022-12-04T19:57:24.821Z,10.43
2022-12-04T20:09:29.525Z,12.43
2022-12-04T20:15:35.168Z,18.17
2022-12-04T20:21:37.478Z,11.38
2022-12-04T20:27:39.786Z,9.65
2022-12-04T20:33:47.078Z,12.00
2022-12-04T20:39:49.608Z,10.43
2022-12-04T20:45:52.106Z,8.52
2022-12-04T20:51:54.341Z,10.27
2022-12-04T20:57:58.019Z,9.07
2022-12-04T21:04:01.232Z,13.18
2022-12-04T21:10:04.495Z,9.18
2022-12-04T21:16:07.356Z,10.25
2022-12-04T21:22:09.795Z,9.15
2022-12-04T21:28:12.185Z,11.18
2022-12-04T21:34:16.487Z,12.77
2022-12-04T21:40:18.739Z,13.27
2022-12-04T21:46:21.071Z,10.20
2022-12-04T21:52:23.465Z,7.13
2022-12-04T21:58:26.451Z,7.75
2022-12-04T22:04:28.893Z,8.52
2022-12-04T22:10:31.040Z,8.15
2022-12-04T22:16:38.350Z,13.18
2022-12-04T22:22:43.839Z,8.32
2022-12-04T22:28:46.689Z,22.65
2022-12-04T22:34:49.450Z,35.28
2022-12-04T22:40:51.647Z,9.52
2022-12-04T22:46:53.840Z,10.50
2022-12-04T22:52:56.027Z,11.60
2022-12-04T22:58:59.389Z,9.13
2022-12-04T23:05:01.828Z,8.55
2022-12-04T23:11:10.727Z,8.93
2022-12-04T23:17:12.835Z,10.05
2022-12-04T23:23:14.898Z,7.38
2022-12-04T23:29:45.009Z,12.30
2022-12-04T23:35:39.259Z,11.50
2022-12-04T23:41:42.163Z,13.73
2022-12-04T23:47:44.517Z,22.17
2022-12-04T23:53:47.547Z,12.43
2022-12-04T23:59:49.683Z,12.02
